createdAt,value
2022-11-19T00:01:53.832Z,1.80
2022-11-19T00:04:30.249Z,1.30
2022-11-19T00:07:05.362Z,1.27
2022-11-19T00:09:40.293Z,1.48
2022-11-19T00:12:33.570Z,1.00
2022-11-19T00:15:08.708Z,1.27
2022-11-19T00:17:44.925Z,1.50
2022-11-19T00:20:20.353Z,1.45
2022-11-19T00:22:58.803Z,1.60
2022-11-19T00:25:35.246Z,1.50
2022-11-19T00:28:13.711Z,1.20
2022-11-19T00:30:49.582Z,1.20
2022-11-19T00:33:24.427Z,1.40
2022-11-19T00:36:05.018Z,1.30
2022-11-19T00:38:40.100Z,1.20
2022-11-19T00:41:15.253Z,1.30
2022-11-19T00:43:52.322Z,1.50
2022-11-19T00:46:27.744Z,1.25
2022-11-19T00:49:03.649Z,1.50
2022-11-19T00:51:38.537Z,1.23
2022-11-19T00:54:14.553Z,1.20
2022-11-19T00:56:49.942Z,1.40
2022-11-19T00:59:28.758Z,1.50
2022-11-19T01:02:05.286Z,1.42
2022-11-19T01:04:39.754Z,1.38
2022-11-19T01:07:14.195Z,1.25
2022-11-19T01:09:51.669Z,1.42
2022-11-19T01:12:28.194Z,1.40
2022-11-19T01:15:05.274Z,1.50
2022-11-19T01:17:40.929Z,1.40
2022-11-19T01:20:17.569Z,1.63
2022-11-19T01:22:53.419Z,1.60
2022-11-19T01:25:29.355Z,1.42
2022-11-19T01:28:05.616Z,1.67
2022-11-19T01:30:47.814Z,1.58
2022-11-19T01:33:22.343Z,1.60
2022-11-19T01:36:04.456Z,1.80
2022-11-19T01:38:40.855Z,1.77
2022-11-19T01:41:22.702Z,2.00
2022-11-19T01:44:00.885Z,1.75
2022-11-19T01:46:39.793Z,1.58
2022-11-19T01:49:19.131Z,1.50
2022-11-19T01:51:57.567Z,1.52
2022-11-19T01:54:34.973Z,1.70
2022-11-19T01:57:13.814Z,1.92
2022-11-19T01:59:49.942Z,1.85
2022-11-19T02:02:29.076Z,1.55
2022-11-19T02:05:05.618Z,1.40
2022-11-19T02:07:54.896Z,1.33
2022-11-19T02:10:41.226Z,1.25
2022-11-19T02:13:32.340Z,1.40
2022-11-19T02:16:10.170Z,1.52
2022-11-19T02:18:51.613Z,1.70
2022-11-19T02:21:30.850Z,1.20
2022-11-19T02:24:32.112Z,1.30
2022-11-19T02:27:28.634Z,1.25
2022-11-19T02:30:18.716Z,1.20
2022-11-19T02:32:57.914Z,1.30
2022-11-19T02:35:54.872Z,1.33
2022-11-19T02:38:34.726Z,1.33
2022-11-19T02:41:26.920Z,1.30
2022-11-19T02:44:20.631Z,1.50
2022-11-19T02:47:04.509Z,1.38
2022-11-19T02:49:41.271Z,1.38
2022-11-19T02:52:18.492Z,1.38
2022-11-19T02:54:58.250Z,1.50
2022-11-19T02:57:37.772Z,1.63
2022-11-19T03:00:35.710Z,1.20
2022-11-19T03:03:30.796Z,1.30
2022-11-19T03:06:10.613Z,1.23
2022-11-19T03:08:45.915Z,1.40
2022-11-19T03:11:26.774Z,1.58
2022-11-19T03:14:19.954Z,1.50
2022-11-19T03:16:57.703Z,1.33
2022-11-19T03:19:42.267Z,1.10
2022-11-19T03:22:20.423Z,1.30
2022-11-19T03:24:58.058Z,1.20
2022-11-19T03:27:35.212Z,1.50
2022-11-19T03:30:12.095Z,1.27
2022-11-19T03:32:50.744Z,1.20
2022-11-19T03:35:30.801Z,1.42
2022-11-19T03:38:08.377Z,1.45
2022-11-19T03:40:44.764Z,1.25
2022-11-19T03:43:22.515Z,1.35
2022-11-19T03:45:58.476Z,1.40
2022-11-19T03:48:34.110Z,1.50
2022-11-19T03:51:14.989Z,1.63
2022-11-19T03:53:50.990Z,1.65
2022-11-19T03:56:27.691Z,1.60
2022-11-19T03:59:04.921Z,1.40
2022-11-19T04:01:39.840Z,1.60
2022-11-19T04:04:30.881Z,1.83
2022-11-19T04:07:07.956Z,1.63
2022-11-19T04:09:43.602Z,1.55
2022-11-19T04:12:21.117Z,1.63
2022-11-19T04:14:55.881Z,1.55
2022-11-19T04:17:31.770Z,1.27
2022-11-19T04:20:07.891Z,1.70
2022-11-19T04:22:46.640Z,1.77
2022-11-19T04:25:24.574Z,1.77
2022-11-19T04:28:01.097Z,1.58
2022-11-19T04:30:35.674Z,1.80
2022-11-19T04:33:10.641Z,1.75
2022-11-19T04:35:45.943Z,1.80
2022-11-19T04:38:23.859Z,1.80
2022-11-19T04:41:01.172Z,1.67
2022-11-19T04:43:38.838Z,1.70
2022-11-19T04:46:13.403Z,1.70
2022-11-19T04:48:53.993Z,1.83
2022-11-19T04:51:29.581Z,1.83
2022-11-19T04:54:06.590Z,1.60
2022-11-19T04:56:50.205Z,1.90
2022-11-19T04:59:24.884Z,2.05
2022-11-19T05:02:00.317Z,1.83
2022-11-19T05:04:39.535Z,1.40
2022-11-19T05:07:17.265Z,1.80
2022-11-19T05:09:54.751Z,1.83
2022-11-19T05:12:29.967Z,1.83
2022-11-19T05:15:09.371Z,1.70
2022-11-19T05:17:50.551Z,2.17
2022-11-19T05:20:28.226Z,1.88
2022-11-19T05:23:08.416Z,1.83
2022-11-19T05:25:57.812Z,1.77
2022-11-19T05:28:59.773Z,1.40
2022-11-19T05:31:39.888Z,2.20
2022-11-19T05:34:16.210Z,1.83
2022-11-19T05:36:53.732Z,1.70
2022-11-19T05:39:55.913Z,2.15
2022-11-19T05:42:33.416Z,2.05
2022-11-19T05:45:10.925Z,2.00
2022-11-19T05:47:48.709Z,1.92
2022-11-19T05:50:40.292Z,1.83
2022-11-19T05:53:19.803Z,2.22
2022-11-19T05:55:56.841Z,2.20
2022-11-19T05:58:33.461Z,2.20
2022-11-19T06:01:10.604Z,1.92
2022-11-19T06:03:49.812Z,2.38
2022-11-19T06:06:25.917Z,2.17
2022-11-19T06:09:00.545Z,2.08
2022-11-19T06:11:55.144Z,1.77
2022-11-19T06:14:38.214Z,2.40
2022-11-19T06:17:13.736Z,2.53
2022-11-19T06:19:50.022Z,2.50
2022-11-19T06:22:25.614Z,2.42
2022-11-19T06:25:01.138Z,2.50
2022-11-19T06:27:38.244Z,2.30
2022-11-19T06:30:18.151Z,2.53
2022-11-19T06:32:54.303Z,2.10
2022-11-19T06:35:31.158Z,2.47
2022-11-19T06:38:07.324Z,2.65
2022-11-19T06:40:43.347Z,2.55
2022-11-19T06:43:19.799Z,2.60
2022-11-19T06:45:59.090Z,2.42
2022-11-19T06:48:35.007Z,2.38
2022-11-19T06:51:10.006Z,2.92
2022-11-19T06:53:44.902Z,2.80
2022-11-19T06:56:20.547Z,2.95
2022-11-19T06:58:55.542Z,3.03
2022-11-19T07:01:35.781Z,2.92
2022-11-19T07:04:11.892Z,3.03
2022-11-19T07:06:47.103Z,2.97
2022-11-19T07:09:22.981Z,3.25
2022-11-19T07:11:58.680Z,2.78
2022-11-19T07:14:34.293Z,3.00
2022-11-19T07:17:11.502Z,3.17
2022-11-19T07:19:47.024Z,3.65
2022-11-19T07:22:22.534Z,2.78
2022-11-19T07:24:58.445Z,3.30
2022-11-19T07:27:33.593Z,3.20
2022-11-19T07:30:09.189Z,3.92
2022-11-19T07:32:46.270Z,3.45
2022-11-19T07:35:21.592Z,3.17
2022-11-19T07:37:56.816Z,3.42
2022-11-19T07:40:32.453Z,3.42
2022-11-19T07:43:11.492Z,3.75
2022-11-19T07:45:50.520Z,3.17
2022-11-19T07:48:27.896Z,3.70
2022-11-19T07:51:02.989Z,3.33
2022-11-19T07:53:38.569Z,3.40
2022-11-19T07:56:14.036Z,3.60
2022-11-19T07:58:48.712Z,3.33
2022-11-19T08:01:24.800Z,3.83
2022-11-19T08:04:01.706Z,3.90
2022-11-19T08:06:38.283Z,3.70
2022-11-19T08:09:16.730Z,3.58
2022-11-19T08:11:55.213Z,3.53
2022-11-19T08:14:34.413Z,4.10
2022-11-19T08:17:31.847Z,3.85
2022-11-19T08:20:10.219Z,3.50
2022-11-19T08:22:45.997Z,4.15
2022-11-19T08:25:21.478Z,3.72
2022-11-19T08:27:59.645Z,3.90
2022-11-19T08:30:35.214Z,3.25
2022-11-19T08:33:11.771Z,4.13
2022-11-19T08:35:48.915Z,3.70
2022-11-19T08:38:26.071Z,4.13
2022-11-19T08:41:12.998Z,3.88
2022-11-19T08:43:49.050Z,3.80
2022-11-19T08:46:23.979Z,4.53
2022-11-19T08:48:59.359Z,4.03
2022-11-19T08:51:36.668Z,5.00
2022-11-19T08:54:15.198Z,4.55
2022-11-19T08:56:51.725Z,4.18
2022-11-19T08:59:29.391Z,4.05
2022-11-19T09:02:04.933Z,4.25
2022-11-19T09:04:40.239Z,4.40
2022-11-19T09:07:19.960Z,3.90
2022-11-19T09:09:55.154Z,4.45
2022-11-19T09:12:30.154Z,3.40
2022-11-19T09:15:05.074Z,4.30
2022-11-19T09:17:46.392Z,4.03
2022-11-19T09:20:22.396Z,4.50
2022-11-19T09:22:59.728Z,4.00
2022-11-19T09:25:35.037Z,4.28
2022-11-19T09:28:10.548Z,4.05
2022-11-19T09:30:47.089Z,4.03
2022-11-19T09:33:22.805Z,3.88
2022-11-19T09:36:01.093Z,4.05
2022-11-19T09:38:38.822Z,4.00
2022-11-19T09:41:33.985Z,4.38
2022-11-19T09:44:12.340Z,4.43
2022-11-19T09:46:51.781Z,4.18
2022-11-19T09:49:29.948Z,4.80
2022-11-19T09:52:07.074Z,4.60
2022-11-19T09:54:46.865Z,4.72
2022-11-19T09:57:24.465Z,4.93
2022-11-19T10:00:01.774Z,4.70
2022-11-19T10:02:46.836Z,4.80
2022-11-19T10:05:23.060Z,5.05
2022-11-19T10:08:03.132Z,5.32
2022-11-19T10:10:45.588Z,5.20
2022-11-19T10:13:28.860Z,5.03
2022-11-19T10:16:20.514Z,7.22
2022-11-19T10:18:58.673Z,6.53
2022-11-19T10:21:36.923Z,5.35
2022-11-19T10:24:19.590Z,5.32
2022-11-19T10:27:07.303Z,5.30
2022-11-19T10:29:44.491Z,4.45
2022-11-19T10:32:29.499Z,5.13
2022-11-19T10:35:09.318Z,4.15
2022-11-19T10:37:46.737Z,4.80
2022-11-19T10:40:25.069Z,4.55
2022-11-19T10:43:13.190Z,4.28
2022-11-19T10:45:50.615Z,4.93
2022-11-19T10:48:27.596Z,4.25
2022-11-19T10:51:04.995Z,4.70
2022-11-19T10:53:44.271Z,4.90
2022-11-19T10:56:22.922Z,4.63
2022-11-19T10:59:03.270Z,5.22
2022-11-19T11:02:01.517Z,5.00
2022-11-19T11:05:19.493Z,4.97
2022-11-19T11:08:28.513Z,4.90
2022-11-19T11:11:53.497Z,5.47
2022-11-19T11:15:02.521Z,5.18
2022-11-19T11:18:18.604Z,4.82
2022-11-19T11:21:29.563Z,5.10
2022-11-19T11:24:18.403Z,4.72
2022-11-19T11:26:53.951Z,4.75
2022-11-19T11:29:31.722Z,4.63
2022-11-19T11:32:18.585Z,4.68
2022-11-19T11:34:58.267Z,5.22
2022-11-19T11:37:37.928Z,5.20
2022-11-19T11:40:23.829Z,4.50
2022-11-19T11:42:58.411Z,5.53
2022-11-19T11:45:36.292Z,4.70
2022-11-19T11:48:14.386Z,4.47
2022-11-19T11:50:51.650Z,4.90
2022-11-19T11:53:34.814Z,4.40
2022-11-19T11:56:16.985Z,5.07
2022-11-19T11:58:53.815Z,5.93
2022-11-19T12:01:32.674Z,5.35
2022-11-19T12:04:27.653Z,5.57
2022-11-19T12:07:17.392Z,5.22
2022-11-19T12:10:05.221Z,5.18
2022-11-19T12:12:45.370Z,4.72
2022-11-19T12:15:23.948Z,4.03
2022-11-19T12:18:04.966Z,4.35
2022-11-19T12:20:48.535Z,4.15
2022-11-19T12:23:38.214Z,3.67
2022-11-19T12:26:32.977Z,4.03
2022-11-19T12:29:15.540Z,4.15
2022-11-19T12:32:03.725Z,3.75
2022-11-19T12:35:02.593Z,4.00
2022-11-19T12:37:50.151Z,3.80
2022-11-19T12:40:40.358Z,3.88
2022-11-19T12:43:25.179Z,3.53
2022-11-19T12:46:05.366Z,3.53
2022-11-19T12:48:52.775Z,3.00
2022-11-19T12:51:36.717Z,3.33
2022-11-19T12:54:36.630Z,3.58
2022-11-19T12:57:30.568Z,3.60
2022-11-19T13:00:21.829Z,3.72
2022-11-19T13:03:08.981Z,3.15
2022-11-19T13:05:52.824Z,3.55
2022-11-19T13:08:37.733Z,3.33
2022-11-19T13:11:18.473Z,3.63
2022-11-19T13:13:56.982Z,3.20
2022-11-19T13:16:35.799Z,3.50
2022-11-19T13:19:28.382Z,4.00
2022-11-19T13:22:08.832Z,4.28
2022-11-19T13:24:47.451Z,5.18
2022-11-19T13:27:29.170Z,4.72
2022-11-19T13:30:09.423Z,5.32
2022-11-19T13:32:48.617Z,5.00
2022-11-19T13:35:28.304Z,5.05
2022-11-19T13:38:13.463Z,5.68
2022-11-19T13:40:54.487Z,5.70
2022-11-19T13:43:48.095Z,5.00
2022-11-19T13:46:28.527Z,4.82
2022-11-19T13:49:07.930Z,5.60
2022-11-19T13:51:45.539Z,5.25
2022-11-19T13:54:29.799Z,4.93
2022-11-19T13:57:06.040Z,4.63
2022-11-19T13:59:48.625Z,4.80
2022-11-19T14:02:51.664Z,4.30
2022-11-19T14:06:04.606Z,4.35
2022-11-19T14:08:55.557Z,4.63
2022-11-19T14:11:58.978Z,4.43
2022-11-19T14:14:57.498Z,5.00
2022-11-19T14:17:53.426Z,4.70
2022-11-19T14:20:55.139Z,4.63
2022-11-19T14:24:03.649Z,4.43
2022-11-19T14:26:56.246Z,5.80
2022-11-19T14:29:50.750Z,5.22
2022-11-19T14:32:33.550Z,5.40
2022-11-19T14:35:24.305Z,4.75
2022-11-19T14:38:00.750Z,5.25
2022-11-19T14:40:38.562Z,4.72
2022-11-19T14:43:46.049Z,4.40
2022-11-19T14:46:29.967Z,4.82
2022-11-19T14:49:10.260Z,5.00
2022-11-19T14:51:46.881Z,4.65
2022-11-19T14:54:31.501Z,4.68
2022-11-19T14:57:11.964Z,4.55
2022-11-19T14:59:50.954Z,4.07
2022-11-19T15:02:34.891Z,4.05
2022-11-19T15:05:11.899Z,3.80
2022-11-19T15:07:55.965Z,3.85
2022-11-19T15:10:36.228Z,3.80
2022-11-19T15:13:32.519Z,3.55
2022-11-19T15:16:16.778Z,3.45
2022-11-19T15:19:08.821Z,3.10
2022-11-19T15:22:00.772Z,2.95
2022-11-19T15:24:42.987Z,3.15
2022-11-19T15:27:22.437Z,3.58
2022-11-19T15:30:13.960Z,3.50
2022-11-19T15:32:58.076Z,4.30
2022-11-19T15:35:39.419Z,4.68
2022-11-19T15:38:20.139Z,4.20
2022-11-19T15:40:59.822Z,4.45
2022-11-19T15:43:35.503Z,5.13
2022-11-19T15:46:12.345Z,5.07
2022-11-19T15:48:56.474Z,4.28
2022-11-19T15:51:31.504Z,4.82
2022-11-19T15:54:07.089Z,4.43
2022-11-19T15:56:44.537Z,4.18
2022-11-19T15:59:21.719Z,4.80
2022-11-19T16:02:03.271Z,5.00
2022-11-19T16:04:42.046Z,5.18
2022-11-19T16:07:17.394Z,5.93
2022-11-19T16:09:54.577Z,5.45
2022-11-19T16:12:47.781Z,5.32
2022-11-19T16:15:43.329Z,3.78
2022-11-19T16:18:19.185Z,4.28
2022-11-19T16:20:56.750Z,3.70
2022-11-19T16:23:33.283Z,4.13
2022-11-19T16:26:08.370Z,3.40
2022-11-19T16:28:45.550Z,3.10
2022-11-19T16:31:20.699Z,3.40
2022-11-19T16:34:00.552Z,3.15
2022-11-19T16:36:35.716Z,3.05
2022-11-19T16:39:10.634Z,2.95
2022-11-19T16:42:01.243Z,3.00
2022-11-19T16:44:38.951Z,3.00
2022-11-19T16:47:19.290Z,2.80
2022-11-19T16:50:07.557Z,2.72
2022-11-19T16:52:43.451Z,3.33
2022-11-19T16:55:33.780Z,3.17
2022-11-19T16:58:10.224Z,2.80
2022-11-19T17:00:50.462Z,2.90
2022-11-19T17:03:36.917Z,2.88
2022-11-19T17:06:13.587Z,3.22
2022-11-19T17:08:59.752Z,3.42
2022-11-19T17:12:08.913Z,3.30
2022-11-19T17:14:52.448Z,3.50
2022-11-19T17:17:44.419Z,3.15
2022-11-19T17:20:48.563Z,3.20
2022-11-19T17:23:26.419Z,3.40
2022-11-19T17:26:02.008Z,3.13
2022-11-19T17:28:39.902Z,3.30
2022-11-19T17:31:20.210Z,3.15
2022-11-19T17:33:58.802Z,3.10
2022-11-19T17:36:33.885Z,3.10
2022-11-19T17:39:12.248Z,3.67
2022-11-19T17:42:04.213Z,3.05
2022-11-19T17:44:40.959Z,3.00
2022-11-19T17:47:24.576Z,2.80
2022-11-19T17:50:02.967Z,3.00
2022-11-19T17:52:37.974Z,3.28
2022-11-19T17:55:20.980Z,2.80
2022-11-19T17:57:55.968Z,3.20
2022-11-19T18:00:30.458Z,3.53
2022-11-19T18:03:05.561Z,3.17
2022-11-19T18:05:42.010Z,3.30
2022-11-19T18:08:16.968Z,3.10
2022-11-19T18:10:54.019Z,3.30
2022-11-19T18:13:32.334Z,2.72
2022-11-19T18:16:07.211Z,3.10
2022-11-19T18:18:42.023Z,2.90
2022-11-19T18:21:17.355Z,2.85
2022-11-19T18:23:52.655Z,2.75
2022-11-19T18:26:29.907Z,2.88
2022-11-19T18:29:04.883Z,2.63
2022-11-19T18:31:40.485Z,2.47
2022-11-19T18:34:19.016Z,2.15
2022-11-19T18:36:54.074Z,2.58
2022-11-19T18:39:29.994Z,2.88
2022-11-19T18:42:06.606Z,2.20
2022-11-19T18:44:40.334Z,2.45
2022-11-19T18:47:15.480Z,2.30
2022-11-19T18:49:49.906Z,2.58
2022-11-19T18:52:24.801Z,2.55
2022-11-19T18:55:00.261Z,2.35
2022-11-19T18:57:37.999Z,2.13
2022-11-19T19:00:13.946Z,2.38
2022-11-19T19:02:48.945Z,2.30
2022-11-19T19:05:23.717Z,2.53
2022-11-19T19:07:58.965Z,2.35
2022-11-19T19:10:34.236Z,2.58
2022-11-19T19:13:11.270Z,2.40
2022-11-19T19:15:45.635Z,2.78
2022-11-19T19:18:20.955Z,2.50
2022-11-19T19:20:55.927Z,2.25
2022-11-19T19:23:30.509Z,2.35
2022-11-19T19:26:05.561Z,2.53
2022-11-19T19:28:43.107Z,2.17
2022-11-19T19:31:18.368Z,2.20
2022-11-19T19:33:53.558Z,2.00
2022-11-19T19:36:29.759Z,2.30
2022-11-19T19:39:04.947Z,2.08
2022-11-19T19:41:40.027Z,2.00
2022-11-19T19:44:16.977Z,1.77
2022-11-19T19:46:52.993Z,1.95
2022-11-19T19:49:27.999Z,1.50
2022-11-19T19:52:02.476Z,1.70
2022-11-19T19:54:37.503Z,1.90
2022-11-19T19:57:12.927Z,1.48
2022-11-19T19:59:49.881Z,1.70
2022-11-19T20:02:27.521Z,1.50
2022-11-19T20:05:03.550Z,1.80
2022-11-19T20:07:39.635Z,1.50
2022-11-19T20:10:15.756Z,1.88
2022-11-19T20:13:07.065Z,1.40
2022-11-19T20:15:44.763Z,1.70
2022-11-19T20:18:20.342Z,1.63
2022-11-19T20:20:56.146Z,1.52
2022-11-19T20:23:31.443Z,1.35
2022-11-19T20:26:09.309Z,1.50
2022-11-19T20:28:45.649Z,1.52
2022-11-19T20:31:24.762Z,1.60
2022-11-19T20:34:02.538Z,1.40
2022-11-19T20:36:40.482Z,1.50
2022-11-19T20:39:16.648Z,1.30
2022-11-19T20:42:07.560Z,1.60
2022-11-19T20:44:43.755Z,1.60
2022-11-19T20:47:21.688Z,1.63
2022-11-19T20:49:58.086Z,1.77
2022-11-19T20:52:33.292Z,1.50
2022-11-19T20:55:09.878Z,1.40
2022-11-19T20:57:45.759Z,1.30
2022-11-19T21:00:22.884Z,1.45
2022-11-19T21:03:00.921Z,1.33
2022-11-19T21:05:36.351Z,1.45
2022-11-19T21:08:11.846Z,1.25
2022-11-19T21:10:47.715Z,1.15
2022-11-19T21:13:23.377Z,1.50
2022-11-19T21:16:00.060Z,1.35
2022-11-19T21:18:38.548Z,1.23
2022-11-19T21:21:14.184Z,1.33
2022-11-19T21:23:50.567Z,1.20
2022-11-19T21:26:27.404Z,1.33
2022-11-19T21:29:04.419Z,1.20
2022-11-19T21:31:44.455Z,1.40
2022-11-19T21:34:25.272Z,1.10
2022-11-19T21:37:01.137Z,1.23
2022-11-19T21:39:36.319Z,1.20
2022-11-19T21:42:12.383Z,1.30
2022-11-19T21:44:47.575Z,1.25
2022-11-19T21:47:23.261Z,1.33
2022-11-19T21:50:02.636Z,1.40
2022-11-19T21:52:37.929Z,1.40
2022-11-19T21:55:14.741Z,1.50
2022-11-19T21:57:50.489Z,1.38
2022-11-19T22:00:26.114Z,0.90
2022-11-19T22:03:02.132Z,1.00
2022-11-19T22:05:40.124Z,1.00
2022-11-19T22:08:16.849Z,1.00
2022-11-19T22:10:55.694Z,0.90
2022-11-19T22:13:31.704Z,0.90
2022-11-19T22:16:07.722Z,1.10
2022-11-19T22:18:44.130Z,0.95
2022-11-19T22:21:21.537Z,0.93
2022-11-19T22:23:56.830Z,0.88
2022-11-19T22:26:32.568Z,0.80
2022-11-19T22:29:09.029Z,0.90
2022-11-19T22:31:44.938Z,0.88
2022-11-19T22:34:20.528Z,0.77
2022-11-19T22:36:58.174Z,0.70
2022-11-19T22:39:34.680Z,0.85
2022-11-19T22:42:10.728Z,0.70
2022-11-19T22:44:46.566Z,1.00
2022-11-19T22:47:22.284Z,0.70
2022-11-19T22:49:58.483Z,0.70
2022-11-19T22:52:35.937Z,0.70
2022-11-19T22:55:12.456Z,0.70
2022-11-19T22:57:47.822Z,0.85
2022-11-19T23:00:43.882Z,0.60
2022-11-19T23:03:20.286Z,0.60
2022-11-19T23:05:57.699Z,0.65
2022-11-19T23:08:35.420Z,0.50
2022-11-19T23:11:12.167Z,0.63
2022-11-19T23:13:47.331Z,0.60
2022-11-19T23:16:24.554Z,0.60
2022-11-19T23:19:00.451Z,0.60
2022-11-19T23:21:36.115Z,0.73
2022-11-19T23:24:14.166Z,0.60
2022-11-19T23:26:49.364Z,0.60
2022-11-19T23:29:25.812Z,0.50
2022-11-19T23:32:01.136Z,0.60
2022-11-19T23:34:36.569Z,0.60
2022-11-19T23:37:11.891Z,0.40
2022-11-19T23:39:52.424Z,0.57
2022-11-19T23:42:28.402Z,0.50
2022-11-19T23:45:04.803Z,0.50
2022-11-19T23:47:42.892Z,0.60
2022-11-19T23:50:18.540Z,0.60
2022-11-19T23:52:57.559Z,0.57
2022-11-19T23:55:35.326Z,0.60
2022-11-19T23:58:11.309Z,0.63
